Time;durP1;ratioP1;P1;durP2;ratioP2;P2;SDS_P1;SDS_P2;PMS_P1;PMS_P2;Temp;Humidity;BMP_temperature;BMP_pressure;BME280_temperature;BME280_humidity;BME280_pressure;Samples;Min_cycle;Max_cycle;Signal;HPM_P1;HPM_P2
2022/03/23 00:00:39;;;;;;;12.05;5.28;;;11.20;74.60;;;;;;5034248;28;20151;-70
2022/03/23 00:03:05;;;;;;;11.32;5.07;;;11.20;74.60;;;;;;5049211;28;20032;-71
2022/03/23 00:05:32;;;;;;;11.32;6.03;;;11.20;74.80;;;;;;5049834;28;20036;-71
2022/03/23 00:07:58;;;;;;;11.52;5.13;;;11.20;74.80;;;;;;5049792;28;20025;-71
2022/03/23 00:10:25;;;;;;;11.50;6.00;;;11.20;74.60;;;;;;5047940;28;20390;-71
2022/03/23 00:12:51;;;;;;;10.50;5.63;;;11.30;74.80;;;;;;5049073;28;20592;-72
2022/03/23 00:15:17;;;;;;;13.40;5.88;;;11.20;74.60;;;;;;5048692;28;20075;-71
2022/03/23 00:17:43;;;;;;;15.98;5.25;;;11.20;74.40;;;;;;5049317;28;20057;-72
2022/03/23 00:20:09;;;;;;;10.77;6.00;;;11.20;74.50;;;;;;5049458;28;20100;-71
2022/03/23 00:22:35;;;;;;;10.55;5.30;;;11.20;74.40;;;;;;5040391;28;20459;-72
2022/03/23 00:25:01;;;;;;;10.15;5.72;;;11.20;74.50;;;;;;5049896;28;20120;-71
2022/03/23 00:27:26;;;;;;;8.60;5.10;;;11.20;74.20;;;;;;5046905;28;20032;-71
2022/03/23 00:29:52;;;;;;;12.10;5.60;;;11.20;74.20;;;;;;5049482;28;20099;-71
2022/03/23 00:32:18;;;;;;;13.93;5.65;;;11.20;74.40;;;;;;5051062;28;20381;-72
2022/03/23 00:34:44;;;;;;;14.90;5.60;;;11.20;74.20;;;;;;5065177;28;20074;-72
2022/03/23 00:37:10;;;;;;;7.80;5.00;;;11.20;74.40;;;;;;5073264;28;20029;-72
2022/03/23 00:39:36;;;;;;;10.35;5.85;;;11.20;74.40;;;;;;5056107;28;20032;-71
2022/03/23 00:42:02;;;;;;;11.38;5.80;;;11.20;74.40;;;;;;5073225;28;20474;-71
2022/03/23 00:44:28;;;;;;;14.63;6.45;;;11.20;74.40;;;;;;5068889;28;20466;-71
2022/03/23 00:46:53;;;;;;;12.52;6.03;;;11.20;74.50;;;;;;5054996;28;20510;-71
2022/03/23 00:49:19;;;;;;;13.02;6.13;;;11.20;74.30;;;;;;5053668;28;20501;-70
2022/03/23 00:51:45;;;;;;;9.50;5.13;;;11.20;74.20;;;;;;5051730;28;20497;-71
2022/03/23 00:54:11;;;;;;;9.90;5.90;;;11.20;74.40;;;;;;5053261;28;20032;-71
2022/03/23 00:56:37;;;;;;;12.75;5.75;;;11.20;74.40;;;;;;5042701;28;20029;-72
2022/03/23 00:59:03;;;;;;;11.32;5.95;;;11.20;74.40;;;;;;5052843;28;20029;-71
2022/03/23 01:01:30;;;;;;;12.57;5.22;;;11.20;74.30;;;;;;5051238;28;20490;-71
2022/03/23 01:03:55;;;;;;;12.00;5.78;;;11.10;74.40;;;;;;5052737;28;20025;-71
2022/03/23 01:06:21;;;;;;;13.00;6.18;;;11.10;74.10;;;;;;5052339;28;20036;-71
2022/03/23 01:08:47;;;;;;;12.50;5.97;;;11.10;74.30;;;;;;5052840;28;20029;-71
2022/03/23 01:11:13;;;;;;;9.85;6.15;;;11.10;74.30;;;;;;5052680;28;20174;-71
2022/03/23 01:13:39;;;;;;;10.50;6.10;;;11.10;74.30;;;;;;5052335;28;20128;-71
2022/03/23 01:16:05;;;;;;;11.27;5.30;;;11.10;74.10;;;;;;5051563;28;20032;-72
2022/03/23 01:18:31;;;;;;;10.57;6.00;;;11.20;74.10;;;;;;5052637;28;20025;-72
2022/03/23 01:20:57;;;;;;;18.90;5.60;;;11.10;74.10;;;;;;5052253;28;20043;-72
2022/03/23 01:23:23;;;;;;;13.60;6.40;;;11.10;74.30;;;;;;5051809;28;20116;-72
2022/03/23 01:25:48;;;;;;;13.02;6.50;;;11.10;74.30;;;;;;5052164;28;20033;-71
2022/03/23 01:28:14;;;;;;;13.32;5.55;;;11.10;74.20;;;;;;5052367;28;20025;-71
2022/03/23 01:30:40;;;;;;;10.38;5.85;;;11.10;74.20;;;;;;5052256;28;20028;-71
2022/03/23 01:33:06;;;;;;;12.90;6.20;;;11.10;74.40;;;;;;5050785;28;20037;-72
2022/03/23 01:35:32;;;;;;;12.82;6.07;;;11.10;74.20;;;;;;5051726;28;20028;-71
2022/03/23 01:37:57;;;;;;;11.32;6.10;;;11.10;74.20;;;;;;5052196;28;20079;-72
2022/03/23 01:40:23;;;;;;;12.60;5.85;;;11.10;74.20;;;;;;5052113;28;20067;-71
2022/03/23 01:42:49;;;;;;;13.30;6.50;;;11.10;74.30;;;;;;5051700;28;20021;-71
2022/03/23 01:45:15;;;;;;;9.48;5.97;;;11.00;74.10;;;;;;5052067;28;20032;-72
2022/03/23 01:47:41;;;;;;;10.70;6.10;;;11.10;74.10;;;;;;5050876;28;20083;-71
2022/03/23 01:50:08;;;;;;;9.80;5.68;;;11.00;74.20;;;;;;5046168;28;20420;-73
2022/03/23 01:52:34;;;;;;;13.15;5.45;;;11.10;74.40;;;;;;5051194;28;20025;-73
2022/03/23 01:55:09;;;;;;;11.68;5.93;;;11.00;74.20;;;;;;5050628;28;20021;-72
2022/03/23 01:57:36;;;;;;;16.27;5.95;;;11.10;74.60;;;;;;5051643;28;20039;-72
2022/03/23 02:00:06;;;;;;;13.02;5.47;;;11.00;74.30;;;;;;5052017;28;20040;-72
2022/03/23 02:02:31;;;;;;;13.23;5.63;;;11.00;74.20;;;;;;5049732;28;20021;-72
2022/03/23 02:04:57;;;;;;;17.27;6.68;;;11.00;74.30;;;;;;5051750;28;20086;-71
2022/03/23 02:07:24;;;;;;;13.50;6.28;;;11.00;74.30;;;;;;5051971;28;20033;-72
2022/03/23 02:09:50;;;;;;;12.32;6.20;;;11.00;74.20;;;;;;5051615;28;20059;-71
2022/03/23 02:12:16;;;;;;;11.30;6.40;;;11.00;74.20;;;;;;5051309;28;20518;-72
2022/03/23 02:14:42;;;;;;;11.43;6.43;;;11.00;73.90;;;;;;5051562;28;20029;-72
2022/03/23 02:17:08;;;;;;;12.00;5.90;;;11.00;74.30;;;;;;5050163;28;20497;-71
2022/03/23 02:19:35;;;;;;;13.63;5.65;;;11.00;74.10;;;;;;5051412;28;20057;-71
2022/03/23 02:22:02;;;;;;;14.93;6.18;;;11.00;74.20;;;;;;5044740;28;20017;-72
2022/03/23 02:24:30;;;;;;;9.80;5.65;;;11.00;74.30;;;;;;5051423;28;20029;-72
2022/03/23 02:26:56;;;;;;;13.38;6.28;;;11.00;74.30;;;;;;5051326;28;20032;-71
2022/03/23 02:29:29;;;;;;;10.40;5.72;;;11.00;74.50;;;;;;5050322;28;20460;-71
2022/03/23 02:31:56;;;;;;;9.85;5.38;;;11.00;74.20;;;;;;5049629;28;20417;-71
2022/03/23 02:34:25;;;;;;;12.10;6.32;;;11.00;74.30;;;;;;5051635;28;20025;-71
2022/03/23 02:36:50;;;;;;;11.90;6.32;;;11.00;74.20;;;;;;5051263;28;20036;-71
2022/03/23 02:39:16;;;;;;;10.10;6.00;;;11.00;74.10;;;;;;5050935;28;20028;-71
2022/03/23 02:41:41;;;;;;;12.73;6.55;;;11.00;74.40;;;;;;5053707;28;20551;-72
2022/03/23 02:44:08;;;;;;;8.73;5.55;;;10.90;74.30;;;;;;5071178;28;20466;-72
2022/03/23 02:46:35;;;;;;;12.68;6.18;;;11.00;74.40;;;;;;5068737;28;20071;-72
2022/03/23 02:49:02;;;;;;;13.88;5.72;;;11.00;74.40;;;;;;5050601;28;20032;-72
2022/03/23 02:51:28;;;;;;;11.38;5.80;;;10.90;74.30;;;;;;5050306;28;20033;-71
2022/03/23 03:02:40;;;;;;;17.98;7.10;;;10.90;74.10;;;;;;5049389;28;20040;-71
2022/03/23 03:05:08;;;;;;;12.68;6.50;;;10.90;74.10;;;;;;5050107;28;20444;-71
2022/03/23 03:10:24;;;;;;;9.85;5.88;;;10.90;74.00;;;;;;5051026;28;20425;-72
2022/03/23 03:12:51;;;;;;;11.77;6.57;;;10.90;74.30;;;;;;5049795;28;20127;-71
2022/03/23 03:15:18;;;;;;;12.70;5.93;;;10.90;74.10;;;;;;5050255;28;20037;-71
2022/03/23 03:17:46;;;;;;;12.23;5.95;;;10.90;74.00;;;;;;5057295;28;20025;-72
2022/03/23 03:20:14;;;;;;;11.75;5.97;;;10.90;73.90;;;;;;5041592;28;20123;-71
2022/03/23 03:22:40;;;;;;;13.40;5.95;;;10.90;74.10;;;;;;5048596;28;20032;-71
2022/03/23 03:25:08;;;;;;;12.27;5.90;;;10.90;73.90;;;;;;5049461;28;20025;-72
2022/03/23 03:27:37;;;;;;;10.73;6.30;;;10.90;74.00;;;;;;5050519;28;20025;-71
2022/03/23 03:30:05;;;;;;;11.98;5.47;;;10.90;74.00;;;;;;5050372;28;20021;-71
2022/03/23 03:32:31;;;;;;;13.13;5.68;;;10.90;74.00;;;;;;5048849;28;20524;-71
2022/03/23 03:34:57;;;;;;;10.73;6.43;;;10.90;74.10;;;;;;5048713;28;20033;-72
2022/03/23 03:37:23;;;;;;;11.63;6.10;;;10.90;74.10;;;;;;5048825;28;20112;-72
2022/03/23 03:39:49;;;;;;;11.13;6.20;;;10.90;73.90;;;;;;5049283;28;20021;-71
2022/03/23 03:42:14;;;;;;;12.07;6.53;;;10.90;74.00;;;;;;5048813;28;20025;-71
2022/03/23 03:44:40;;;;;;;17.33;7.25;;;10.90;74.00;;;;;;5049654;28;20025;-72
2022/03/23 03:47:06;;;;;;;11.02;5.95;;;10.80;74.10;;;;;;5047631;28;20037;-72
2022/03/23 03:49:32;;;;;;;13.43;5.95;;;10.90;74.10;;;;;;5043332;28;20484;-73
2022/03/23 03:51:58;;;;;;;11.57;5.57;;;10.80;74.00;;;;;;5048966;28;20029;-72
2022/03/23 03:54:24;;;;;;;11.07;5.65;;;10.80;74.10;;;;;;5048702;28;20032;-71
2022/03/23 03:56:50;;;;;;;13.93;6.28;;;10.80;73.90;;;;;;5049620;28;20025;-71
2022/03/23 03:59:15;;;;;;;11.02;5.82;;;10.80;73.90;;;;;;5049698;28;20028;-71
2022/03/23 04:01:42;;;;;;;11.57;6.07;;;10.90;73.80;;;;;;5049684;28;20048;-71
2022/03/23 04:04:07;;;;;;;12.82;6.30;;;10.80;73.90;;;;;;5043279;28;20464;-72
2022/03/23 04:06:33;;;;;;;12.85;6.68;;;10.80;74.00;;;;;;5048779;28;20049;-73
2022/03/23 04:08:59;;;;;;;14.98;6.38;;;10.80;73.80;;;;;;5054396;28;20470;-71
2022/03/23 04:11:24;;;;;;;15.02;5.28;;;10.80;74.10;;;;;;5069330;28;20029;-72
2022/03/23 04:13:50;;;;;;;13.88;7.05;;;10.80;73.80;;;;;;5069497;28;20040;-71
2022/03/23 04:16:15;;;;;;;13.15;5.93;;;10.80;73.80;;;;;;5069563;28;20033;-72
2022/03/23 04:18:41;;;;;;;13.27;5.85;;;10.80;73.80;;;;;;5056399;28;20423;-72
2022/03/23 04:21:07;;;;;;;17.73;5.85;;;10.80;73.80;;;;;;5049192;28;20104;-72
2022/03/23 04:23:33;;;;;;;10.98;5.53;;;10.80;73.80;;;;;;5049015;28;20417;-72
2022/03/23 04:25:59;;;;;;;11.45;6.15;;;10.80;73.70;;;;;;5043031;28;20501;-72
2022/03/23 04:28:25;;;;;;;10.73;6.00;;;10.80;73.80;;;;;;5048897;28;20017;-72
2022/03/23 04:30:50;;;;;;;8.98;5.45;;;10.80;73.70;;;;;;5048425;28;20031;-71
2022/03/23 04:33:16;;;;;;;11.57;6.15;;;10.80;73.80;;;;;;5048163;28;20025;-71
2022/03/23 04:35:42;;;;;;;16.40;6.70;;;10.80;73.60;;;;;;5048304;28;20087;-71
2022/03/23 04:38:07;;;;;;;14.65;6.45;;;10.80;73.90;;;;;;5049471;28;20021;-72
2022/03/23 04:40:33;;;;;;;16.83;6.45;;;10.80;73.80;;;;;;5049484;28;20449;-72
2022/03/23 04:42:58;;;;;;;12.32;6.68;;;10.70;73.70;;;;;;5048949;28;20031;-72
2022/03/23 04:45:25;;;;;;;14.10;6.20;;;10.70;73.90;;;;;;5049031;28;20037;-72
2022/03/23 04:47:51;;;;;;;16.25;5.78;;;10.80;73.90;;;;;;5047892;28;20041;-73
2022/03/23 04:50:17;;;;;;;12.60;6.15;;;10.70;73.60;;;;;;5048351;28;20036;-72
2022/03/23 04:52:44;;;;;;;14.45;6.70;;;10.70;73.60;;;;;;5048889;28;20029;-72
2022/03/23 04:55:12;;;;;;;13.02;7.03;;;10.70;73.50;;;;;;5048880;28;20440;-72
2022/03/23 04:57:38;;;;;;;12.38;6.70;;;10.70;73.70;;;;;;5049144;28;20032;-72
2022/03/23 05:00:08;;;;;;;9.07;6.00;;;10.70;73.70;;;;;;5049153;28;20021;-72
2022/03/23 05:02:34;;;;;;;10.18;5.15;;;10.70;73.40;;;;;;5048088;28;20029;-73
2022/03/23 05:04:59;;;;;;;11.30;5.47;;;10.70;73.50;;;;;;5046411;28;20040;-72
2022/03/23 05:07:25;;;;;;;17.08;6.50;;;10.70;73.50;;;;;;5048978;28;20446;-73
2022/03/23 05:09:51;;;;;;;11.90;6.70;;;10.70;73.50;;;;;;5048882;28;20032;-72
2022/03/23 05:12:16;;;;;;;14.85;6.35;;;10.70;73.80;;;;;;5048192;28;20532;-72
2022/03/23 05:14:42;;;;;;;12.65;6.70;;;10.70;73.60;;;;;;5048717;28;20090;-72
2022/03/23 05:17:07;;;;;;;10.20;6.10;;;10.70;73.50;;;;;;5048124;28;20474;-73
2022/03/23 05:19:35;;;;;;;15.57;6.30;;;10.70;73.80;;;;;;5051631;28;20040;-74
2022/03/23 05:22:01;;;;;;;12.73;6.25;;;10.70;73.50;;;;;;5052172;28;20021;-72
2022/03/23 05:24:28;;;;;;;12.05;6.68;;;10.70;73.50;;;;;;5052646;28;20108;-72
2022/03/23 05:26:54;;;;;;;21.27;8.75;;;10.70;73.50;;;;;;5052233;28;20036;-72
2022/03/23 05:29:19;;;;;;;14.27;7.00;;;10.70;73.50;;;;;;5049109;28;20029;-72
2022/03/23 05:31:45;;;;;;;11.90;6.57;;;10.70;73.60;;;;;;5051289;28;20021;-72
2022/03/23 05:34:11;;;;;;;17.05;6.93;;;10.70;73.40;;;;;;5051346;28;20060;-72
2022/03/23 05:36:36;;;;;;;14.48;6.70;;;10.70;73.40;;;;;;5051498;28;20068;-72
2022/03/23 05:39:02;;;;;;;14.07;6.75;;;10.70;73.50;;;;;;5051430;28;20029;-72
2022/03/23 05:41:28;;;;;;;13.77;7.30;;;10.70;73.40;;;;;;5053178;28;20025;-72
2022/03/23 05:43:53;;;;;;;19.10;7.28;;;10.70;73.60;;;;;;5053996;28;20017;-73
2022/03/23 05:46:19;;;;;;;17.95;7.88;;;10.70;73.50;;;;;;5061045;28;20024;-72
2022/03/23 05:51:34;;;;;;;13.90;7.95;;;10.70;73.40;;;;;;5118403;22;20052;-80
2022/03/23 05:54:01;;;;;;;14.90;7.13;;;10.70;73.50;;;;;;5092217;28;20044;-77
2022/03/23 05:56:26;;;;;;;18.75;7.72;;;10.70;73.50;;;;;;5091623;28;20050;-77
2022/03/23 05:58:53;;;;;;;17.65;7.55;;;10.70;73.40;;;;;;5092843;28;20400;-77
2022/03/23 06:01:18;;;;;;;18.67;7.10;;;10.70;73.30;;;;;;5092849;28;20055;-77
2022/03/23 06:03:44;;;;;;;13.57;7.38;;;10.70;73.50;;;;;;5092484;28;20030;-77
2022/03/23 06:06:10;;;;;;;15.95;6.68;;;10.70;73.50;;;;;;5091217;28;20027;-77
2022/03/23 06:08:36;;;;;;;12.40;6.90;;;10.70;73.40;;;;;;5092686;28;20550;-80
2022/03/23 06:11:02;;;;;;;17.77;7.28;;;10.70;73.30;;;;;;5073887;28;20086;-78
2022/03/23 06:13:28;;;;;;;18.52;7.45;;;10.70;73.50;;;;;;5091382;28;20035;-77
2022/03/23 06:15:54;;;;;;;22.00;7.22;;;10.70;73.40;;;;;;5091899;28;20366;-77
2022/03/23 06:18:20;;;;;;;16.77;7.40;;;10.70;73.40;;;;;;5090810;28;20028;-77
2022/03/23 06:20:46;;;;;;;16.90;7.38;;;10.70;73.50;;;;;;5090700;28;20024;-77
2022/03/23 06:23:13;;;;;;;14.77;7.28;;;10.70;73.60;;;;;;5091370;28;20325;-77
2022/03/23 06:25:39;;;;;;;17.55;6.45;;;10.80;73.90;;;;;;5091506;28;20020;-78
2022/03/23 06:28:04;;;;;;;17.33;6.65;;;10.80;73.80;;;;;;5091968;28;20024;-77
2022/03/23 06:30:30;;;;;;;12.60;6.63;;;10.90;72.80;;;;;;5090870;28;20538;-78
2022/03/23 06:32:56;;;;;;;15.13;6.22;;;10.90;72.40;;;;;;5073419;28;20561;-77
2022/03/23 06:35:22;;;;;;;14.32;6.93;;;11.00;72.50;;;;;;5093665;28;20056;-78
2022/03/23 06:37:48;;;;;;;14.02;6.80;;;11.00;72.50;;;;;;5093553;28;20028;-77
2022/03/23 06:40:13;;;;;;;26.80;7.38;;;11.10;73.00;;;;;;5111302;28;20093;-78
2022/03/23 06:42:39;;;;;;;16.65;6.65;;;11.10;72.50;;;;;;5111718;28;20088;-77
2022/03/23 06:45:05;;;;;;;25.13;6.50;;;11.10;72.50;;;;;;5111875;28;20430;-78
2022/03/23 06:47:31;;;;;;;10.57;6.43;;;11.20;72.50;;;;;;5111829;28;20054;-78
2022/03/23 06:49:56;;;;;;;13.98;7.00;;;11.20;72.60;;;;;;5099631;28;20064;-78
2022/03/23 06:52:22;;;;;;;13.50;6.97;;;11.20;72.60;;;;;;5090437;28;20488;-77
2022/03/23 06:54:49;;;;;;;20.88;8.20;;;11.20;72.80;;;;;;5090963;28;20069;-78
2022/03/23 06:57:14;;;;;;;13.65;7.53;;;11.30;73.00;;;;;;5090813;28;20020;-78
2022/03/23 06:59:40;;;;;;;15.20;7.18;;;11.30;73.20;;;;;;5091445;28;20026;-78
2022/03/23 07:02:08;;;;;;;15.35;7.50;;;11.30;73.40;;;;;;5091019;28;20399;-78
2022/03/23 07:04:34;;;;;;;14.90;7.80;;;11.40;73.40;;;;;;5091050;28;20034;-81
2022/03/23 07:07:00;;;;;;;13.35;6.75;;;11.40;73.40;;;;;;5090443;28;20111;-78
2022/03/23 07:09:31;;;;;;;18.50;6.93;;;11.40;73.40;;;;;;5090709;28;20115;-79
2022/03/23 07:12:01;;;;;;;23.35;7.80;;;11.40;73.80;;;;;;5090801;28;20077;-78
2022/03/23 07:14:28;;;;;;;18.92;7.03;;;11.50;73.00;;;;;;5090919;28;20028;-78
2022/03/23 07:16:54;;;;;;;15.30;6.82;;;11.50;72.80;;;;;;5090528;28;20024;-78
2022/03/23 07:19:20;;;;;;;12.73;7.22;;;11.50;72.80;;;;;;5090930;28;20016;-78
2022/03/23 07:21:46;;;;;;;16.77;7.88;;;11.50;72.70;;;;;;5090203;28;20039;-78
2022/03/23 07:24:12;;;;;;;15.98;7.47;;;11.60;72.60;;;;;;5075708;28;20100;-78
2022/03/23 07:26:38;;;;;;;17.85;8.13;;;11.60;72.70;;;;;;5084978;28;20028;-78
2022/03/23 07:29:04;;;;;;;14.70;7.82;;;11.60;72.60;;;;;;5090738;28;20031;-78
2022/03/23 07:31:29;;;;;;;16.95;8.13;;;11.70;72.70;;;;;;5090342;28;20024;-78
2022/03/23 07:33:57;;;;;;;20.50;7.63;;;11.70;72.90;;;;;;5090207;28;20032;-78
2022/03/23 07:36:24;;;;;;;19.92;7.53;;;11.70;72.90;;;;;;5089948;28;20316;-79
2022/03/23 07:38:50;;;;;;;17.90;7.07;;;11.70;72.90;;;;;;5090015;28;20546;-78
2022/03/23 07:41:16;;;;;;;19.90;6.80;;;11.80;72.90;;;;;;5090282;28;20408;-79
2022/03/23 07:43:41;;;;;;;13.85;6.97;;;11.80;72.80;;;;;;5090733;28;20453;-78
2022/03/23 07:46:07;;;;;;;14.13;7.45;;;11.80;72.90;;;;;;5072232;28;20032;-78
2022/03/23 07:48:33;;;;;;;22.15;7.65;;;11.80;72.60;;;;;;5090404;28;20020;-79
2022/03/23 07:50:58;;;;;;;16.15;7.30;;;11.80;72.50;;;;;;5089077;28;20435;-79
2022/03/23 07:53:24;;;;;;;16.40;7.10;;;11.90;72.70;;;;;;5089699;28;20036;-78
2022/03/23 07:55:50;;;;;;;11.70;6.32;;;11.80;73.10;;;;;;5088917;28;20469;-79
2022/03/23 07:58:15;;;;;;;15.68;6.97;;;11.90;72.90;;;;;;5090172;28;20032;-79
2022/03/23 08:00:43;;;;;;;16.08;7.65;;;11.90;73.20;;;;;;5090022;28;20054;-79
2022/03/23 08:03:10;;;;;;;17.02;6.90;;;11.90;73.20;;;;;;5089826;28;20020;-79
2022/03/23 08:05:37;;;;;;;17.50;7.32;;;11.90;73.20;;;;;;5090377;28;20051;-79
2022/03/23 08:08:03;;;;;;;20.20;6.78;;;11.90;72.40;;;;;;5106766;28;20279;-78
2022/03/23 08:10:29;;;;;;;12.30;6.55;;;11.90;72.60;;;;;;5110463;28;20450;-79
2022/03/23 08:12:55;;;;;;;17.77;6.85;;;12.00;71.50;;;;;;5110045;28;20424;-79
2022/03/23 08:15:21;;;;;;;10.30;5.90;;;12.00;71.70;;;;;;5090923;28;20538;-78
2022/03/23 08:17:47;;;;;;;10.80;6.88;;;12.00;71.90;;;;;;5089535;28;20028;-79
2022/03/23 08:22:57;;;;;;;17.33;6.90;;;12.00;71.40;;;;;;5105768;28;20084;-78
2022/03/23 08:25:23;;;;;;;20.60;8.13;;;11.90;72.50;;;;;;5110497;28;20169;-79
2022/03/23 08:27:50;;;;;;;16.00;6.60;;;12.00;71.90;;;;;;5110250;28;20523;-79
2022/03/23 08:30:15;;;;;;;16.65;7.60;;;12.00;72.10;;;;;;5107139;28;20035;-79
2022/03/23 08:32:41;;;;;;;22.77;7.15;;;12.00;70.80;;;;;;5089120;28;20020;-80
2022/03/23 08:35:07;;;;;;;13.95;7.47;;;12.00;71.40;;;;;;5089859;28;20020;-79
2022/03/23 08:37:33;;;;;;;16.77;7.85;;;12.00;71.90;;;;;;5101107;28;20089;-79
2022/03/23 08:39:59;;;;;;;27.42;7.20;;;12.00;71.60;;;;;;5110370;28;20484;-79
2022/03/23 08:42:26;;;;;;;28.65;8.80;;;12.00;71.20;;;;;;5092268;28;20036;-78
2022/03/23 08:44:52;;;;;;;17.10;7.40;;;12.00;69.70;;;;;;5072276;28;20020;-79
2022/03/23 08:47:17;;;;;;;19.70;8.80;;;12.00;70.30;;;;;;5073698;28;20022;-79
2022/03/23 08:49:43;;;;;;;18.30;9.45;;;12.00;69.40;;;;;;5090606;28;20032;-79
2022/03/23 08:52:10;;;;;;;18.42;8.85;;;12.00;68.90;;;;;;5089534;28;20027;-79
2022/03/23 08:54:35;;;;;;;19.17;7.72;;;12.00;70.50;;;;;;5093527;28;20423;-80
2022/03/23 08:57:01;;;;;;;21.80;8.80;;;12.00;69.60;;;;;;5093686;28;20016;-79
2022/03/23 08:59:27;;;;;;;16.65;7.75;;;12.00;70.80;;;;;;5093744;28;20074;-79
2022/03/23 09:01:53;;;;;;;19.40;8.35;;;12.00;70.30;;;;;;5093413;28;20032;-79
2022/03/23 09:04:18;;;;;;;15.13;7.82;;;12.00;69.70;;;;;;5093639;28;20028;-79
2022/03/23 09:06:44;;;;;;;15.48;7.57;;;12.00;72.90;;;;;;5094194;28;20039;-79
2022/03/23 09:09:10;;;;;;;16.60;7.72;;;12.00;72.10;;;;;;5094167;28;20035;-78
2022/03/23 09:11:36;;;;;;;21.23;9.60;;;12.10;71.10;;;;;;5093566;28;20024;-80
2022/03/23 09:14:01;;;;;;;18.17;8.18;;;12.10;71.60;;;;;;5093031;28;20155;-79
2022/03/23 09:16:27;;;;;;;16.05;7.25;;;12.10;72.20;;;;;;5093160;28;20024;-79
2022/03/23 09:18:53;;;;;;;21.55;5.93;;;12.10;73.00;;;;;;5092960;28;20050;-79
2022/03/23 09:21:20;;;;;;;18.55;7.45;;;12.10;72.80;;;;;;5092693;28;20035;-78
2022/03/23 09:23:46;;;;;;;19.50;7.15;;;12.10;72.40;;;;;;5092049;28;20035;-79
2022/03/23 09:26:12;;;;;;;15.00;8.18;;;12.20;72.90;;;;;;5093117;28;20532;-79
2022/03/23 09:28:38;;;;;;;13.95;6.78;;;12.20;73.10;;;;;;5093007;28;20036;-79
2022/03/23 09:31:04;;;;;;;16.08;7.15;;;12.20;74.20;;;;;;5092785;28;20499;-79
2022/03/23 09:33:31;;;;;;;15.07;7.85;;;12.20;72.70;;;;;;5093107;28;20138;-78
2022/03/23 09:35:57;;;;;;;20.20;8.40;;;12.20;73.30;;;;;;5092876;28;20020;-79
2022/03/23 09:38:23;;;;;;;17.13;7.40;;;12.20;74.20;;;;;;5078834;28;20489;-78
2022/03/23 09:40:52;;;;;;;23.60;8.65;;;12.20;74.30;;;;;;5082800;28;20023;-78
2022/03/23 09:43:23;;;;;;;14.05;7.35;;;12.20;73.70;;;;;;5092580;28;20173;-78
2022/03/23 09:45:50;;;;;;;21.58;8.30;;;12.30;71.30;;;;;;5092175;28;20097;-78
2022/03/23 09:48:20;;;;;;;12.18;7.40;;;12.30;72.40;;;;;;5093172;28;20024;-78
2022/03/23 09:50:53;;;;;;;17.83;6.22;;;12.30;72.30;;;;;;5092563;28;20028;-78
2022/03/23 09:53:21;;;;;;;21.70;6.07;;;12.30;73.20;;;;;;5104940;28;20047;-78
2022/03/23 09:55:49;;;;;;;4.45;2.50;;;12.30;72.70;;;;;;5090292;28;20016;-78
2022/03/23 09:58:15;;;;;;;8.93;3.75;;;12.40;73.50;;;;;;5091711;28;20081;-78
2022/03/23 10:00:44;;;;;;;14.05;7.38;;;12.40;70.00;;;;;;5074370;28;20036;-78
2022/03/23 10:03:12;;;;;;;14.50;8.60;;;12.50;68.30;;;;;;5091118;28;20024;-78
2022/03/23 10:06:18;;;;;;;16.30;7.78;;;12.50;69.20;;;;;;5090926;28;20111;-78
2022/03/23 10:09:18;;;;;;;12.30;5.90;;;12.50;71.10;;;;;;5105204;28;20421;-78
2022/03/23 10:12:21;;;;;;;27.27;7.43;;;12.60;70.30;;;;;;5112289;28;20061;-78
2022/03/23 10:15:08;;;;;;;15.20;7.25;;;12.70;68.90;;;;;;5104072;28;20039;-78
2022/03/23 10:17:54;;;;;;;12.05;7.05;;;12.70;69.20;;;;;;5092049;28;20024;-77
2022/03/23 10:20:20;;;;;;;13.52;6.68;;;12.70;70.90;;;;;;5092457;28;20132;-77
2022/03/23 10:22:48;;;;;;;8.43;4.63;;;12.70;70.60;;;;;;5091155;28;20516;-78
2022/03/23 10:25:14;;;;;;;12.98;4.57;;;12.70;71.30;;;;;;5091365;28;20301;-78
2022/03/23 10:27:40;;;;;;;12.50;7.18;;;12.80;68.80;;;;;;5092036;28;20051;-78
2022/03/23 10:30:06;;;;;;;10.65;5.82;;;12.80;69.80;;;;;;5092178;28;20221;-77
2022/03/23 10:32:36;;;;;;;11.60;5.18;;;12.80;71.30;;;;;;5091772;28;20128;-77
2022/03/23 10:35:04;;;;;;;13.18;6.88;;;12.90;69.80;;;;;;5091923;28;20028;-77
2022/03/23 10:37:34;;;;;;;10.70;6.57;;;12.90;70.40;;;;;;5106928;28;20032;-77
2022/03/23 10:40:13;;;;;;;10.13;5.75;;;12.90;70.30;;;;;;5092536;28;20153;-77
2022/03/23 10:42:44;;;;;;;12.55;7.38;;;12.90;70.20;;;;;;5073539;28;20032;-78
2022/03/23 10:45:15;;;;;;;20.83;6.82;;;13.00;70.60;;;;;;5085663;28;20024;-77
2022/03/23 10:47:42;;;;;;;3.03;2.15;;;13.00;69.50;;;;;;5086047;28;20058;-77
2022/03/23 10:50:24;;;;;;;20.50;6.68;;;13.00;68.00;;;;;;5084536;28;20087;-78
2022/03/23 10:53:06;;;;;;;11.05;6.88;;;13.00;69.10;;;;;;5094409;28;20032;-79
2022/03/23 10:55:37;;;;;;;11.00;6.45;;;13.00;69.70;;;;;;5112218;28;20091;-76
2022/03/23 10:58:17;;;;;;;12.90;7.05;;;13.00;68.80;;;;;;5111483;28;20030;-77
2022/03/23 11:00:43;;;;;;;6.70;4.90;;;13.00;70.30;;;;;;5111415;28;20028;-78
2022/03/23 11:03:09;;;;;;;12.73;7.03;;;13.10;69.60;;;;;;5111885;28;20145;-77
2022/03/23 11:05:47;;;;;;;13.35;6.80;;;13.10;70.20;;;;;;5093264;28;20092;-77
2022/03/23 11:08:19;;;;;;;12.00;6.35;;;13.10;70.00;;;;;;5109799;28;20569;-77
2022/03/23 11:16:25;;;;;;;12.90;7.22;;;13.10;70.10;;;;;;5082746;28;20057;-79
2022/03/23 11:19:12;;;;;;;13.77;7.18;;;13.20;69.50;;;;;;5072743;28;20032;-77
2022/03/23 11:21:56;;;;;;;15.95;6.93;;;13.20;70.10;;;;;;5075820;28;20044;-77
2022/03/23 11:24:22;;;;;;;13.40;6.13;;;13.20;70.80;;;;;;5087934;28;20028;-77
2022/03/23 11:26:50;;;;;;;13.30;7.63;;;13.20;70.70;;;;;;5090642;28;20449;-76
2022/03/23 11:29:18;;;;;;;13.70;6.93;;;13.30;70.90;;;;;;5079819;28;20024;-80
2022/03/23 11:31:45;;;;;;;12.10;6.60;;;13.30;71.30;;;;;;5068605;28;20500;-76
2022/03/23 11:34:13;;;;;;;12.32;7.57;;;13.30;71.60;;;;;;5090280;28;20031;-76
2022/03/23 11:36:40;;;;;;;4.70;2.38;;;13.30;71.30;;;;;;5090808;28;20031;-76
2022/03/23 11:39:06;;;;;;;17.73;7.90;;;13.30;71.30;;;;;;5089488;28;20024;-76
2022/03/23 11:41:34;;;;;;;16.45;5.50;;;13.40;71.20;;;;;;5090395;28;20111;-75
2022/03/23 11:44:00;;;;;;;13.48;6.95;;;13.40;71.00;;;;;;5090345;28;20016;-76
2022/03/23 11:46:27;;;;;;;14.68;7.22;;;13.50;71.20;;;;;;5090105;28;20089;-76
2022/03/23 11:48:58;;;;;;;15.57;7.75;;;13.50;72.00;;;;;;5086880;28;20074;-76
2022/03/23 11:52:15;;;;;;;17.88;8.73;;;13.50;72.60;;;;;;5069415;28;20588;-75
2022/03/23 11:57:55;;;;;;;11.88;5.65;;;13.50;71.90;;;;;;4968247;28;20121;-76
2022/03/23 12:00:22;;;;;;;13.85;7.13;;;13.60;71.50;;;;;;4972078;28;20023;-76
2022/03/23 12:02:48;;;;;;;11.98;7.03;;;13.60;71.70;;;;;;4967930;28;20058;-75
2022/03/23 12:05:25;;;;;;;6.30;3.97;;;13.50;70.80;;;;;;4968367;28;20425;-77
2022/03/23 12:11:41;;;;;;;10.85;6.28;;;13.60;71.60;;;;;;5092129;22;20117;-71
2022/03/23 12:14:19;;;;;;;5.05;2.55;;;13.60;71.60;;;;;;5096521;28;20023;-71
2022/03/23 12:16:51;;;;;;;4.63;2.30;;;13.70;71.70;;;;;;5110214;28;20028;-70
2022/03/23 12:19:28;;;;;;;12.93;5.70;;;13.70;71.30;;;;;;5086668;28;20407;-71
